KMAF

Midland International Air and Space Port Airport

Midland, Texas, USA
METAR KMAF 231953Z 12004KT 10SM OVC010 16/13 A3016 RMK AO2 SLP188 T01610133
Observed Flight Rules
Oct-23 @ 19:53 UTC (39 minutes ago) Marginal Visual Flight Rules
Wind Visibility Clouds
120° at 4 knots 10 miles
  • Overcast at 1,000' AGL
Temperatures Readings
Current 16°C / 61°F
Dewpoint 13°C / 55°F
Humidity 83%
Altimeter 30.16" Hg
Pressure 1018.8 hPa
Elevation 874
METAR KMAF 231953Z 12004KT 10SM OVC010 16/13 A3016 RMK AO2 SLP188 T01610133
Observed Flight Rules
Oct-23 @ 19:53 UTC
(39 minutes ago)
MVFR
Wind Visibility
120° at 4 knots 10 miles
Clouds
  • Overcast at 1,000' AGL
Temperature Dewpoint
16°C / 61°F 13°C / 55°F
Humidity Altimeter Pressure
83% 30.16" Hg 1018.8 hPa